SLAS/ASC METAR and TAF weather

Enter ICAO airport designator
Station Type Date Time Source
SLAS METAR 2019/02/05 12:00 UTC NOAA

SLAS 051200Z 18010KT 9999 NSC 24/21 Q1016


Station Type Date Time Source
SLAS Decoded METAR 2019/02/05 12:00 UTC NOAA

Ascencion De Guarayos, Bolivia (SLAS) 15-43S 063-06W
Feb 05, 2019 - 07:00 AM EST / 2019.02.05 1200 UTC
Wind: from the S (180 degrees) at 12 MPH (10 KT):0
Visibility: greater than 7 mile(s):0
Temperature: 75 F (24 C)
Dew Point: 69 F (21 C)
Relative Humidity: 83%
Pressure (altimeter): 30.00 in. Hg (1016 hPa)
ob: SLAS 051200Z 18010KT 9999 NSC 24/21 Q1016
cycle: 12

Station Type Date Time Source
SLAS TAF UTC NOAA

Error!


Example: see airport list